sensor_id;sensor_type;location;lat;lon;timestamp;P1;durP1;ratioP1;P2;durP2;ratioP2
66607;SDS011;53462;39.616;8.824;2023-04-23T00:00:02;4.10;;;2.30;;
66607;SDS011;53462;39.616;8.824;2023-04-23T00:02:37;3.53;;;2.60;;
66607;SDS011;53462;39.616;8.824;2023-04-23T00:05:05;3.05;;;2.20;;
66607;SDS011;53462;39.616;8.824;2023-04-23T00:07:32;3.95;;;2.30;;
66607;SDS011;53462;39.616;8.824;2023-04-23T00:09:59;3.95;;;2.38;;
66607;SDS011;53462;39.616;8.824;2023-04-23T00:12:26;2.85;;;1.90;;
66607;SDS011;53462;39.616;8.824;2023-04-23T00:14:53;4.55;;;1.98;;
66607;SDS011;53462;39.616;8.824;2023-04-23T00:17:19;2.47;;;1.80;;
66607;SDS011;53462;39.616;8.824;2023-04-23T00:19:45;2.75;;;1.90;;
66607;SDS011;53462;39.616;8.824;2023-04-23T00:22:12;3.47;;;1.85;;
66607;SDS011;53462;39.616;8.824;2023-04-23T00:24:39;2.42;;;2.03;;
66607;SDS011;53462;39.616;8.824;2023-04-23T00:27:05;3.33;;;1.80;;
66607;SDS011;53462;39.616;8.824;2023-04-23T00:29:31;3.67;;;1.70;;
66607;SDS011;53462;39.616;8.824;2023-04-23T00:31:57;3.33;;;1.80;;
66607;SDS011;53462;39.616;8.824;2023-04-23T00:34:23;2.85;;;1.90;;
66607;SDS011;53462;39.616;8.824;2023-04-23T00:36:50;3.42;;;1.88;;
66607;SDS011;53462;39.616;8.824;2023-04-23T00:39:16;2.53;;;1.88;;
66607;SDS011;53462;39.616;8.824;2023-04-23T00:41:44;2.80;;;1.90;;
66607;SDS011;53462;39.616;8.824;2023-04-23T00:44:10;3.00;;;1.90;;
66607;SDS011;53462;39.616;8.824;2023-04-23T00:46:37;2.25;;;1.73;;
66607;SDS011;53462;39.616;8.824;2023-04-23T00:49:03;3.45;;;2.03;;
66607;SDS011;53462;39.616;8.824;2023-04-23T00:51:29;2.25;;;1.83;;
66607;SDS011;53462;39.616;8.824;2023-04-23T00:53:58;2.75;;;1.98;;
66607;SDS011;53462;39.616;8.824;2023-04-23T00:56:24;3.08;;;1.80;;
66607;SDS011;53462;39.616;8.824;2023-04-23T00:58:52;3.65;;;2.08;;
66607;SDS011;53462;39.616;8.824;2023-04-23T01:01:19;2.15;;;1.75;;
66607;SDS011;53462;39.616;8.824;2023-04-23T01:03:50;2.90;;;2.10;;
66607;SDS011;53462;39.616;8.824;2023-04-23T01:06:17;2.38;;;1.88;;
66607;SDS011;53462;39.616;8.824;2023-04-23T01:08:44;2.10;;;1.80;;
66607;SDS011;53462;39.616;8.824;2023-04-23T01:11:15;3.47;;;2.10;;
66607;SDS011;53462;39.616;8.824;2023-04-23T01:13:42;2.60;;;1.80;;
66607;SDS011;53462;39.616;8.824;2023-04-23T01:16:08;3.97;;;2.00;;
66607;SDS011;53462;39.616;8.824;2023-04-23T01:18:36;2.50;;;2.00;;
66607;SDS011;53462;39.616;8.824;2023-04-23T01:21:03;2.67;;;1.88;;
66607;SDS011;53462;39.616;8.824;2023-04-23T01:23:29;2.53;;;2.00;;
66607;SDS011;53462;39.616;8.824;2023-04-23T01:25:55;3.60;;;1.60;;
66607;SDS011;53462;39.616;8.824;2023-04-23T01:28:22;2.03;;;1.65;;
66607;SDS011;53462;39.616;8.824;2023-04-23T01:30:48;3.53;;;1.88;;
66607;SDS011;53462;39.616;8.824;2023-04-23T01:33:16;3.85;;;1.90;;
66607;SDS011;53462;39.616;8.824;2023-04-23T01:35:43;2.95;;;2.05;;
66607;SDS011;53462;39.616;8.824;2023-04-23T01:38:10;4.25;;;2.28;;
66607;SDS011;53462;39.616;8.824;2023-04-23T01:40:38;3.75;;;2.10;;
66607;SDS011;53462;39.616;8.824;2023-04-23T01:43:06;2.72;;;2.10;;
66607;SDS011;53462;39.616;8.824;2023-04-23T01:45:32;2.88;;;2.10;;
66607;SDS011;53462;39.616;8.824;2023-04-23T01:47:59;5.05;;;2.00;;
66607;SDS011;53462;39.616;8.824;2023-04-23T01:50:25;3.70;;;2.20;;
66607;SDS011;53462;39.616;8.824;2023-04-23T01:52:53;3.08;;;2.00;;
66607;SDS011;53462;39.616;8.824;2023-04-23T01:55:19;2.28;;;2.03;;
66607;SDS011;53462;39.616;8.824;2023-04-23T01:57:45;3.35;;;2.13;;
66607;SDS011;53462;39.616;8.824;2023-04-23T02:00:12;3.97;;;2.10;;
66607;SDS011;53462;39.616;8.824;2023-04-23T02:02:40;3.17;;;2.03;;
66607;SDS011;53462;39.616;8.824;2023-04-23T02:05:24;2.53;;;1.95;;
66607;SDS011;53462;39.616;8.824;2023-04-23T02:07:53;2.70;;;1.80;;
66607;SDS011;53462;39.616;8.824;2023-04-23T02:10:20;2.20;;;1.80;;
66607;SDS011;53462;39.616;8.824;2023-04-23T02:12:46;2.80;;;2.00;;
66607;SDS011;53462;39.616;8.824;2023-04-23T02:15:13;3.08;;;1.77;;
66607;SDS011;53462;39.616;8.824;2023-04-23T02:17:39;2.38;;;1.73;;
66607;SDS011;53462;39.616;8.824;2023-04-23T02:20:06;3.17;;;2.00;;
66607;SDS011;53462;39.616;8.824;2023-04-23T02:22:34;2.17;;;1.70;;
66607;SDS011;53462;39.616;8.824;2023-04-23T02:25:02;2.65;;;2.00;;
66607;SDS011;53462;39.616;8.824;2023-04-23T02:27:28;5.15;;;2.22;;
66607;SDS011;53462;39.616;8.824;2023-04-23T02:29:54;3.70;;;1.88;;
66607;SDS011;53462;39.616;8.824;2023-04-23T02:32:20;3.10;;;1.92;;
66607;SDS011;53462;39.616;8.824;2023-04-23T02:34:46;2.65;;;1.88;;
66607;SDS011;53462;39.616;8.824;2023-04-23T02:37:12;2.22;;;1.83;;
66607;SDS011;53462;39.616;8.824;2023-04-23T02:39:38;3.75;;;1.98;;
66607;SDS011;53462;39.616;8.824;2023-04-23T02:42:04;2.60;;;1.85;;
66607;SDS011;53462;39.616;8.824;2023-04-23T02:44:30;3.42;;;1.92;;
66607;SDS011;53462;39.616;8.824;2023-04-23T02:46:56;2.50;;;2.20;;
66607;SDS011;53462;39.616;8.824;2023-04-23T02:49:22;4.57;;;2.10;;
66607;SDS011;53462;39.616;8.824;2023-04-23T02:51:48;2.95;;;2.00;;
66607;SDS011;53462;39.616;8.824;2023-04-23T02:54:14;2.90;;;2.20;;
66607;SDS011;53462;39.616;8.824;2023-04-23T02:56:40;3.28;;;2.13;;
66607;SDS011;53462;39.616;8.824;2023-04-23T02:59:06;3.65;;;2.30;;
66607;SDS011;53462;39.616;8.824;2023-04-23T03:01:32;3.13;;;2.20;;
66607;SDS011;53462;39.616;8.824;2023-04-23T03:03:59;3.15;;;2.10;;
66607;SDS011;53462;39.616;8.824;2023-04-23T03:06:25;2.42;;;2.10;;
66607;SDS011;53462;39.616;8.824;2023-04-23T03:08:51;3.03;;;2.40;;
66607;SDS011;53462;39.616;8.824;2023-04-23T03:11:17;3.60;;;2.00;;
66607;SDS011;53462;39.616;8.824;2023-04-23T03:13:43;3.25;;;2.10;;
66607;SDS011;53462;39.616;8.824;2023-04-23T03:16:09;2.72;;;2.25;;
66607;SDS011;53462;39.616;8.824;2023-04-23T03:18:35;3.05;;;1.90;;
66607;SDS011;53462;39.616;8.824;2023-04-23T03:21:01;2.97;;;2.17;;
66607;SDS011;53462;39.616;8.824;2023-04-23T03:23:28;3.08;;;1.85;;
66607;SDS011;53462;39.616;8.824;2023-04-23T03:25:54;2.97;;;2.00;;
66607;SDS011;53462;39.616;8.824;2023-04-23T03:28:20;3.30;;;2.10;;
66607;SDS011;53462;39.616;8.824;2023-04-23T03:30:46;4.03;;;2.50;;
66607;SDS011;53462;39.616;8.824;2023-04-23T03:33:12;3.85;;;2.00;;
66607;SDS011;53462;39.616;8.824;2023-04-23T03:35:38;3.13;;;2.08;;
66607;SDS011;53462;39.616;8.824;2023-04-23T03:38:09;3.22;;;2.25;;
66607;SDS011;53462;39.616;8.824;2023-04-23T03:40:35;3.67;;;1.98;;
66607;SDS011;53462;39.616;8.824;2023-04-23T03:43:03;3.65;;;2.20;;
66607;SDS011;53462;39.616;8.824;2023-04-23T03:46:01;4.05;;;2.10;;
66607;SDS011;53462;39.616;8.824;2023-04-23T03:48:29;4.93;;;2.25;;
66607;SDS011;53462;39.616;8.824;2023-04-23T03:50:57;3.22;;;2.05;;
66607;SDS011;53462;39.616;8.824;2023-04-23T03:53:43;5.00;;;1.83;;
66607;SDS011;53462;39.616;8.824;2023-04-23T03:56:28;3.38;;;2.05;;
66607;SDS011;53462;39.616;8.824;2023-04-23T03:59:06;5.07;;;2.08;;
66607;SDS011;53462;39.616;8.824;2023-04-23T04:01:33;1.90;;;1.48;;
66607;SDS011;53462;39.616;8.824;2023-04-23T04:04:00;3.40;;;1.80;;
66607;SDS011;53462;39.616;8.824;2023-04-23T04:06:26;2.97;;;1.58;;
66607;SDS011;53462;39.616;8.824;2023-04-23T04:08:54;2.38;;;1.80;;
66607;SDS011;53462;39.616;8.824;2023-04-23T04:11:21;2.40;;;1.67;;
66607;SDS011;53462;39.616;8.824;2023-04-23T04:13:47;3.38;;;1.60;;
66607;SDS011;53462;39.616;8.824;2023-04-23T04:16:12;2.03;;;1.50;;
66607;SDS011;53462;39.616;8.824;2023-04-23T04:18:38;2.40;;;1.50;;
66607;SDS011;53462;39.616;8.824;2023-04-23T04:21:04;5.53;;;1.90;;
66607;SDS011;53462;39.616;8.824;2023-04-23T04:23:30;3.38;;;1.30;;
66607;SDS011;53462;39.616;8.824;2023-04-23T04:25:57;1.75;;;1.30;;
66607;SDS011;53462;39.616;8.824;2023-04-23T04:28:23;1.65;;;1.15;;
66607;SDS011;53462;39.616;8.824;2023-04-23T04:30:51;2.20;;;1.50;;
66607;SDS011;53462;39.616;8.824;2023-04-23T04:33:18;5.05;;;1.50;;
66607;SDS011;53462;39.616;8.824;2023-04-23T04:35:45;2.45;;;1.30;;
66607;SDS011;53462;39.616;8.824;2023-04-23T04:38:13;1.88;;;1.20;;
66607;SDS011;53462;39.616;8.824;2023-04-23T04:40:40;2.05;;;1.35;;
66607;SDS011;53462;39.616;8.824;2023-04-23T04:43:06;2.22;;;1.40;;
66607;SDS011;53462;39.616;8.824;2023-04-23T04:45:32;1.88;;;1.30;;
66607;SDS011;53462;39.616;8.824;2023-04-23T04:47:58;2.05;;;1.42;;
66607;SDS011;53462;39.616;8.824;2023-04-23T04:50:24;2.22;;;1.50;;
66607;SDS011;53462;39.616;8.824;2023-04-23T04:52:50;3.08;;;1.30;;
66607;SDS011;53462;39.616;8.824;2023-04-23T04:55:16;1.75;;;1.30;;
66607;SDS011;53462;39.616;8.824;2023-04-23T04:57:42;3.40;;;1.50;;
66607;SDS011;53462;39.616;8.824;2023-04-23T05:00:21;2.08;;;1.20;;
66607;SDS011;53462;39.616;8.824;2023-04-23T05:02:49;2.08;;;1.20;;
66607;SDS011;53462;39.616;8.824;2023-04-23T05:05:17;2.33;;;1.20;;
66607;SDS011;53462;39.616;8.824;2023-04-23T05:07:43;1.73;;;1.20;;
66607;SDS011;53462;39.616;8.824;2023-04-23T05:10:09;4.03;;;1.42;;
66607;SDS011;53462;39.616;8.824;2023-04-23T05:12:36;2.35;;;1.45;;
66607;SDS011;53462;39.616;8.824;2023-04-23T05:15:06;1.67;;;1.20;;
66607;SDS011;53462;39.616;8.824;2023-04-23T05:17:33;1.52;;;1.30;;
66607;SDS011;53462;39.616;8.824;2023-04-23T05:19:59;2.50;;;1.50;;
66607;SDS011;53462;39.616;8.824;2023-04-23T05:22:26;2.70;;;1.65;;
66607;SDS011;53462;39.616;8.824;2023-04-23T05:24:52;2.40;;;1.60;;
66607;SDS011;53462;39.616;8.824;2023-04-23T05:27:18;2.28;;;1.52;;
66607;SDS011;53462;39.616;8.824;2023-04-23T05:29:44;3.63;;;1.40;;
66607;SDS011;53462;39.616;8.824;2023-04-23T05:32:10;3.83;;;1.50;;
66607;SDS011;53462;39.616;8.824;2023-04-23T05:34:37;3.17;;;1.70;;
66607;SDS011;53462;39.616;8.824;2023-04-23T05:37:03;3.05;;;1.50;;
66607;SDS011;53462;39.616;8.824;2023-04-23T05:39:30;1.88;;;1.35;;
66607;SDS011;53462;39.616;8.824;2023-04-23T05:41:56;2.92;;;1.30;;
66607;SDS011;53462;39.616;8.824;2023-04-23T05:44:22;3.80;;;1.38;;
66607;SDS011;53462;39.616;8.824;2023-04-23T05:46:48;3.03;;;1.30;;
66607;SDS011;53462;39.616;8.824;2023-04-23T05:49:14;3.55;;;1.33;;
66607;SDS011;53462;39.616;8.824;2023-04-23T05:51:40;1.52;;;1.13;;
66607;SDS011;53462;39.616;8.824;2023-04-23T05:54:06;1.60;;;1.20;;
66607;SDS011;53462;39.616;8.824;2023-04-23T05:56:32;2.63;;;1.38;;
66607;SDS011;53462;39.616;8.824;2023-04-23T05:58:58;4.30;;;1.50;;
66607;SDS011;53462;39.616;8.824;2023-04-23T06:01:24;2.33;;;1.30;;
66607;SDS011;53462;39.616;8.824;2023-04-23T06:03:50;1.50;;;1.30;;
66607;SDS011;53462;39.616;8.824;2023-04-23T06:06:16;3.33;;;1.30;;
66607;SDS011;53462;39.616;8.824;2023-04-23T06:08:42;2.10;;;1.50;;
66607;SDS011;53462;39.616;8.824;2023-04-23T06:11:08;1.58;;;1.38;;
66607;SDS011;53462;39.616;8.824;2023-04-23T06:13:34;2.05;;;1.30;;
66607;SDS011;53462;39.616;8.824;2023-04-23T06:16:07;2.67;;;1.60;;
66607;SDS011;53462;39.616;8.824;2023-04-23T06:18:33;4.45;;;1.50;;
66607;SDS011;53462;39.616;8.824;2023-04-23T06:21:02;2.55;;;1.30;;
66607;SDS011;53462;39.616;8.824;2023-04-23T06:23:29;3.42;;;1.60;;
66607;SDS011;53462;39.616;8.824;2023-04-23T06:25:55;2.67;;;1.40;;
66607;SDS011;53462;39.616;8.824;2023-04-23T06:28:21;2.58;;;1.42;;
66607;SDS011;53462;39.616;8.824;2023-04-23T06:31:20;3.20;;;1.40;;
66607;SDS011;53462;39.616;8.824;2023-04-23T06:33:46;2.03;;;1.33;;
66607;SDS011;53462;39.616;8.824;2023-04-23T06:36:12;3.15;;;1.30;;
66607;SDS011;53462;39.616;8.824;2023-04-23T06:38:38;5.50;;;1.60;;
66607;SDS011;53462;39.616;8.824;2023-04-23T06:41:05;2.92;;;1.50;;
66607;SDS011;53462;39.616;8.824;2023-04-23T06:43:31;5.68;;;1.83;;
66607;SDS011;53462;39.616;8.824;2023-04-23T06:46:16;4.43;;;1.30;;
66607;SDS011;53462;39.616;8.824;2023-04-23T06:48:42;2.28;;;1.27;;
66607;SDS011;53462;39.616;8.824;2023-04-23T06:51:08;1.42;;;1.30;;
66607;SDS011;53462;39.616;8.824;2023-04-23T06:53:34;3.70;;;1.67;;
66607;SDS011;53462;39.616;8.824;2023-04-23T06:56:00;3.88;;;1.30;;
66607;SDS011;53462;39.616;8.824;2023-04-23T06:58:26;2.50;;;1.40;;
66607;SDS011;53462;39.616;8.824;2023-04-23T07:00:56;2.17;;;1.50;;
66607;SDS011;53462;39.616;8.824;2023-04-23T07:03:30;2.00;;;1.40;;
66607;SDS011;53462;39.616;8.824;2023-04-23T07:05:56;4.18;;;1.83;;
66607;SDS011;53462;39.616;8.824;2023-04-23T07:08:23;2.22;;;1.50;;
66607;SDS011;53462;39.616;8.824;2023-04-23T07:10:49;6.53;;;2.00;;
66607;SDS011;53462;39.616;8.824;2023-04-23T07:13:16;2.53;;;1.67;;
66607;SDS011;53462;39.616;8.824;2023-04-23T07:15:42;2.40;;;1.50;;
66607;SDS011;53462;39.616;8.824;2023-04-23T07:18:08;3.60;;;1.52;;
66607;SDS011;53462;39.616;8.824;2023-04-23T07:20:34;1.75;;;1.30;;
66607;SDS011;53462;39.616;8.824;2023-04-23T07:23:00;1.95;;;1.20;;
66607;SDS011;53462;39.616;8.824;2023-04-23T07:25:28;2.92;;;1.50;;
66607;SDS011;53462;39.616;8.824;2023-04-23T07:27:55;3.50;;;1.95;;
66607;SDS011;53462;39.616;8.824;2023-04-23T07:30:22;3.72;;;1.42;;
66607;SDS011;53462;39.616;8.824;2023-04-23T07:32:49;2.28;;;1.20;;
66607;SDS011;53462;39.616;8.824;2023-04-23T07:35:15;3.78;;;1.20;;
66607;SDS011;53462;39.616;8.824;2023-04-23T07:37:41;3.88;;;1.30;;
66607;SDS011;53462;39.616;8.824;2023-04-23T07:40:07;6.20;;;2.00;;
66607;SDS011;53462;39.616;8.824;2023-04-23T07:42:33;12.27;;;4.30;;
66607;SDS011;53462;39.616;8.824;2023-04-23T07:44:59;4.93;;;2.58;;
66607;SDS011;53462;39.616;8.824;2023-04-23T07:47:25;6.40;;;2.25;;
66607;SDS011;53462;39.616;8.824;2023-04-23T07:49:51;2.30;;;1.70;;
66607;SDS011;53462;39.616;8.824;2023-04-23T07:52:17;6.18;;;1.70;;
66607;SDS011;53462;39.616;8.824;2023-04-23T07:54:43;4.63;;;1.42;;
66607;SDS011;53462;39.616;8.824;2023-04-23T07:57:10;6.07;;;1.55;;
66607;SDS011;53462;39.616;8.824;2023-04-23T07:59:36;2.67;;;1.48;;
66607;SDS011;53462;39.616;8.824;2023-04-23T08:02:05;3.03;;;1.58;;
66607;SDS011;53462;39.616;8.824;2023-04-23T08:04:31;3.97;;;1.70;;
66607;SDS011;53462;39.616;8.824;2023-04-23T08:06:57;4.93;;;2.25;;
66607;SDS011;53462;39.616;8.824;2023-04-23T08:09:23;8.73;;;4.53;;
66607;SDS011;53462;39.616;8.824;2023-04-23T08:11:50;6.60;;;5.93;;
66607;SDS011;53462;39.616;8.824;2023-04-23T08:14:16;5.82;;;2.05;;
66607;SDS011;53462;39.616;8.824;2023-04-23T08:16:43;7.90;;;6.30;;
66607;SDS011;53462;39.616;8.824;2023-04-23T08:19:08;6.50;;;3.17;;
66607;SDS011;53462;39.616;8.824;2023-04-23T08:21:37;2.85;;;1.50;;
66607;SDS011;53462;39.616;8.824;2023-04-23T08:24:03;4.15;;;1.33;;
66607;SDS011;53462;39.616;8.824;2023-04-23T08:26:31;7.32;;;1.60;;
66607;SDS011;53462;39.616;8.824;2023-04-23T08:28:58;2.17;;;1.35;;
66607;SDS011;53462;39.616;8.824;2023-04-23T08:31:27;5.03;;;1.60;;
66607;SDS011;53462;39.616;8.824;2023-04-23T08:33:53;4.50;;;1.60;;
66607;SDS011;53462;39.616;8.824;2023-04-23T08:36:19;6.30;;;2.60;;
66607;SDS011;53462;39.616;8.824;2023-04-23T08:38:45;8.23;;;3.53;;
66607;SDS011;53462;39.616;8.824;2023-04-23T08:41:12;4.60;;;2.10;;
66607;SDS011;53462;39.616;8.824;2023-04-23T08:46:11;4.50;;;2.00;;
66607;SDS011;53462;39.616;8.824;2023-04-23T08:48:40;7.03;;;3.40;;
66607;SDS011;53462;39.616;8.824;2023-04-23T08:51:08;5.40;;;2.33;;
66607;SDS011;53462;39.616;8.824;2023-04-23T08:53:37;4.22;;;2.20;;
66607;SDS011;53462;39.616;8.824;2023-04-23T08:56:07;4.90;;;2.40;;
66607;SDS011;53462;39.616;8.824;2023-04-23T08:58:33;7.13;;;3.53;;
66607;SDS011;53462;39.616;8.824;2023-04-23T09:01:00;5.32;;;2.47;;
66607;SDS011;53462;39.616;8.824;2023-04-23T09:03:26;3.50;;;1.98;;
66607;SDS011;53462;39.616;8.824;2023-04-23T09:05:53;3.95;;;2.17;;
66607;SDS011;53462;39.616;8.824;2023-04-23T09:08:20;5.70;;;3.00;;
66607;SDS011;53462;39.616;8.824;2023-04-23T09:10:46;5.43;;;2.40;;
66607;SDS011;53462;39.616;8.824;2023-04-23T09:13:14;4.97;;;2.65;;
66607;SDS011;53462;39.616;8.824;2023-04-23T09:15:40;4.95;;;2.25;;
66607;SDS011;53462;39.616;8.824;2023-04-23T09:18:09;2.90;;;1.77;;
66607;SDS011;53462;39.616;8.824;2023-04-23T09:20:35;3.03;;;1.70;;
66607;SDS011;53462;39.616;8.824;2023-04-23T09:23:08;7.70;;;2.50;;
66607;SDS011;53462;39.616;8.824;2023-04-23T09:25:37;4.50;;;2.50;;
66607;SDS011;53462;39.616;8.824;2023-04-23T09:28:03;7.45;;;4.72;;
66607;SDS011;53462;39.616;8.824;2023-04-23T09:30:37;4.05;;;2.00;;
66607;SDS011;53462;39.616;8.824;2023-04-23T09:33:05;4.60;;;2.00;;
66607;SDS011;53462;39.616;8.824;2023-04-23T09:35:31;5.30;;;2.58;;
66607;SDS011;53462;39.616;8.824;2023-04-23T09:38:00;3.70;;;1.80;;
66607;SDS011;53462;39.616;8.824;2023-04-23T09:40:30;4.90;;;2.40;;
66607;SDS011;53462;39.616;8.824;2023-04-23T09:42:56;5.95;;;2.95;;
66607;SDS011;53462;39.616;8.824;2023-04-23T09:45:22;6.95;;;3.03;;
66607;SDS011;53462;39.616;8.824;2023-04-23T09:47:54;5.35;;;2.65;;
66607;SDS011;53462;39.616;8.824;2023-04-23T09:50:31;6.78;;;2.00;;
66607;SDS011;53462;39.616;8.824;2023-04-23T09:53:06;4.00;;;2.13;;
66607;SDS011;53462;39.616;8.824;2023-04-23T09:55:34;4.32;;;2.17;;
66607;SDS011;53462;39.616;8.824;2023-04-23T09:58:03;7.00;;;2.00;;
66607;SDS011;53462;39.616;8.824;2023-04-23T10:00:40;6.28;;;2.40;;
66607;SDS011;53462;39.616;8.824;2023-04-23T10:03:06;6.88;;;2.40;;
66607;SDS011;53462;39.616;8.824;2023-04-23T10:05:37;4.18;;;2.20;;
66607;SDS011;53462;39.616;8.824;2023-04-23T10:08:05;6.65;;;2.95;;
66607;SDS011;53462;39.616;8.824;2023-04-23T10:10:31;8.70;;;2.88;;
66607;SDS011;53462;39.616;8.824;2023-04-23T10:12:59;4.78;;;2.47;;
66607;SDS011;53462;39.616;8.824;2023-04-23T10:15:26;5.22;;;2.30;;
66607;SDS011;53462;39.616;8.824;2023-04-23T10:17:53;6.47;;;2.47;;
66607;SDS011;53462;39.616;8.824;2023-04-23T10:20:21;7.55;;;2.47;;
66607;SDS011;53462;39.616;8.824;2023-04-23T10:22:47;8.57;;;2.63;;
66607;SDS011;53462;39.616;8.824;2023-04-23T10:25:13;10.15;;;2.22;;
66607;SDS011;53462;39.616;8.824;2023-04-23T10:27:43;7.88;;;2.90;;
66607;SDS011;53462;39.616;8.824;2023-04-23T10:30:12;3.60;;;2.20;;
66607;SDS011;53462;39.616;8.824;2023-04-23T10:32:38;3.28;;;1.98;;
66607;SDS011;53462;39.616;8.824;2023-04-23T10:35:05;3.78;;;2.28;;
66607;SDS011;53462;39.616;8.824;2023-04-23T10:37:33;6.03;;;2.80;;
66607;SDS011;53462;39.616;8.824;2023-04-23T10:40:02;3.20;;;2.08;;
66607;SDS011;53462;39.616;8.824;2023-04-23T10:42:36;3.35;;;1.65;;
66607;SDS011;53462;39.616;8.824;2023-04-23T10:45:12;4.35;;;1.90;;
66607;SDS011;53462;39.616;8.824;2023-04-23T10:47:42;5.13;;;1.80;;
66607;SDS011;53462;39.616;8.824;2023-04-23T10:50:19;3.70;;;2.20;;
66607;SDS011;53462;39.616;8.824;2023-04-23T10:52:50;2.30;;;1.70;;
66607;SDS011;53462;39.616;8.824;2023-04-23T10:55:22;5.00;;;1.70;;
66607;SDS011;53462;39.616;8.824;2023-04-23T11:00:25;8.70;;;1.90;;
66607;SDS011;53462;39.616;8.824;2023-04-23T11:02:51;3.75;;;1.50;;
66607;SDS011;53462;39.616;8.824;2023-04-23T11:05:17;3.40;;;1.70;;
66607;SDS011;53462;39.616;8.824;2023-04-23T11:08:05;5.18;;;1.90;;
66607;SDS011;53462;39.616;8.824;2023-04-23T11:10:32;3.85;;;1.83;;
66607;SDS011;53462;39.616;8.824;2023-04-23T11:13:27;3.92;;;1.60;;
66607;SDS011;53462;39.616;8.824;2023-04-23T11:16:13;5.50;;;1.83;;
66607;SDS011;53462;39.616;8.824;2023-04-23T11:18:59;7.40;;;1.65;;
66607;SDS011;53462;39.616;8.824;2023-04-23T11:24:34;4.70;;;1.70;;
66607;SDS011;53462;39.616;8.824;2023-04-23T11:29:38;3.03;;;1.63;;
66607;SDS011;53462;39.616;8.824;2023-04-23T11:32:06;4.45;;;1.60;;
66607;SDS011;53462;39.616;8.824;2023-04-23T11:34:40;5.88;;;1.83;;
66607;SDS011;53462;39.616;8.824;2023-04-23T11:37:10;2.65;;;1.70;;
66607;SDS011;53462;39.616;8.824;2023-04-23T11:39:40;3.10;;;1.75;;
66607;SDS011;53462;39.616;8.824;2023-04-23T11:42:12;4.85;;;1.80;;
66607;SDS011;53462;39.616;8.824;2023-04-23T11:44:39;6.15;;;1.85;;
66607;SDS011;53462;39.616;8.824;2023-04-23T11:47:06;2.58;;;1.40;;
66607;SDS011;53462;39.616;8.824;2023-04-23T11:49:35;3.45;;;1.50;;
66607;SDS011;53462;39.616;8.824;2023-04-23T11:52:02;2.75;;;1.45;;
66607;SDS011;53462;39.616;8.824;2023-04-23T11:54:28;4.00;;;2.03;;
66607;SDS011;53462;39.616;8.824;2023-04-23T11:56:58;2.92;;;1.60;;
66607;SDS011;53462;39.616;8.824;2023-04-23T11:59:24;3.28;;;1.60;;
66607;SDS011;53462;39.616;8.824;2023-04-23T12:01:52;3.33;;;1.70;;
66607;SDS011;53462;39.616;8.824;2023-04-23T12:04:27;3.25;;;1.40;;
66607;SDS011;53462;39.616;8.824;2023-04-23T12:06:54;2.15;;;1.52;;
66607;SDS011;53462;39.616;8.824;2023-04-23T12:09:22;5.07;;;1.80;;
66607;SDS011;53462;39.616;8.824;2023-04-23T12:11:49;2.60;;;1.60;;
66607;SDS011;53462;39.616;8.824;2023-04-23T12:14:15;2.63;;;1.45;;
66607;SDS011;53462;39.616;8.824;2023-04-23T12:16:45;3.97;;;1.67;;
66607;SDS011;53462;39.616;8.824;2023-04-23T12:19:17;4.32;;;1.67;;
66607;SDS011;53462;39.616;8.824;2023-04-23T12:24:24;3.25;;;1.67;;
66607;SDS011;53462;39.616;8.824;2023-04-23T12:26:52;6.97;;;2.53;;
66607;SDS011;53462;39.616;8.824;2023-04-23T12:29:24;7.13;;;2.05;;
66607;SDS011;53462;39.616;8.824;2023-04-23T12:31:51;4.18;;;1.77;;
66607;SDS011;53462;39.616;8.824;2023-04-23T12:34:18;4.40;;;2.10;;
66607;SDS011;53462;39.616;8.824;2023-04-23T12:36:48;3.20;;;1.67;;
66607;SDS011;53462;39.616;8.824;2023-04-23T12:39:22;10.38;;;2.75;;
66607;SDS011;53462;39.616;8.824;2023-04-23T12:41:56;7.32;;;1.90;;
66607;SDS011;53462;39.616;8.824;2023-04-23T12:44:30;5.68;;;2.08;;
66607;SDS011;53462;39.616;8.824;2023-04-23T12:47:02;8.18;;;2.15;;
66607;SDS011;53462;39.616;8.824;2023-04-23T12:49:32;6.85;;;2.20;;
66607;SDS011;53462;39.616;8.824;2023-04-23T12:51:59;3.83;;;1.70;;
66607;SDS011;53462;39.616;8.824;2023-04-23T12:54:28;6.32;;;1.92;;
66607;SDS011;53462;39.616;8.824;2023-04-23T12:56:56;5.63;;;2.20;;
66607;SDS011;53462;39.616;8.824;2023-04-23T12:59:23;7.95;;;2.58;;
66607;SDS011;53462;39.616;8.824;2023-04-23T13:01:49;4.70;;;2.10;;
66607;SDS011;53462;39.616;8.824;2023-04-23T13:04:15;6.05;;;1.83;;
66607;SDS011;53462;39.616;8.824;2023-04-23T13:06:41;8.30;;;2.30;;
66607;SDS011;53462;39.616;8.824;2023-04-23T13:09:08;8.02;;;2.10;;
66607;SDS011;53462;39.616;8.824;2023-04-23T13:11:37;5.63;;;1.92;;
66607;SDS011;53462;39.616;8.824;2023-04-23T13:14:04;8.52;;;2.33;;
66607;SDS011;53462;39.616;8.824;2023-04-23T13:16:30;5.07;;;2.00;;
66607;SDS011;53462;39.616;8.824;2023-04-23T13:18:56;5.90;;;2.20;;
66607;SDS011;53462;39.616;8.824;2023-04-23T13:21:24;8.18;;;2.45;;
66607;SDS011;53462;39.616;8.824;2023-04-23T13:23:50;4.05;;;2.05;;
66607;SDS011;53462;39.616;8.824;2023-04-23T13:26:16;7.18;;;2.22;;
66607;SDS011;53462;39.616;8.824;2023-04-23T13:28:42;4.18;;;2.03;;
66607;SDS011;53462;39.616;8.824;2023-04-23T13:31:08;7.47;;;2.10;;
66607;SDS011;53462;39.616;8.824;2023-04-23T13:33:36;6.60;;;2.03;;
66607;SDS011;53462;39.616;8.824;2023-04-23T13:36:03;7.25;;;1.98;;
66607;SDS011;53462;39.616;8.824;2023-04-23T13:38:29;5.22;;;1.90;;
66607;SDS011;53462;39.616;8.824;2023-04-23T13:40:56;6.38;;;2.63;;
66607;SDS011;53462;39.616;8.824;2023-04-23T13:43:22;7.65;;;2.17;;
66607;SDS011;53462;39.616;8.824;2023-04-23T13:45:48;7.20;;;2.10;;
66607;SDS011;53462;39.616;8.824;2023-04-23T13:48:14;5.50;;;2.05;;
66607;SDS011;53462;39.616;8.824;2023-04-23T13:50:41;7.10;;;2.30;;
66607;SDS011;53462;39.616;8.824;2023-04-23T13:53:09;10.43;;;2.95;;
66607;SDS011;53462;39.616;8.824;2023-04-23T13:55:36;5.28;;;2.30;;
66607;SDS011;53462;39.616;8.824;2023-04-23T13:58:02;6.85;;;2.13;;
66607;SDS011;53462;39.616;8.824;2023-04-23T14:00:29;6.90;;;1.98;;
66607;SDS011;53462;39.616;8.824;2023-04-23T14:02:55;7.25;;;2.20;;
66607;SDS011;53462;39.616;8.824;2023-04-23T14:05:21;5.47;;;2.10;;
66607;SDS011;53462;39.616;8.824;2023-04-23T14:07:47;6.85;;;2.05;;
66607;SDS011;53462;39.616;8.824;2023-04-23T14:10:13;6.35;;;2.10;;
66607;SDS011;53462;39.616;8.824;2023-04-23T14:12:39;6.88;;;2.17;;
66607;SDS011;53462;39.616;8.824;2023-04-23T14:15:06;6.88;;;2.22;;
66607;SDS011;53462;39.616;8.824;2023-04-23T14:17:33;9.43;;;2.45;;
66607;SDS011;53462;39.616;8.824;2023-04-23T14:19:59;6.95;;;2.10;;
66607;SDS011;53462;39.616;8.824;2023-04-23T14:22:25;10.70;;;2.72;;
66607;SDS011;53462;39.616;8.824;2023-04-23T14:24:56;8.57;;;2.33;;
66607;SDS011;53462;39.616;8.824;2023-04-23T14:27:26;8.30;;;2.30;;
66607;SDS011;53462;39.616;8.824;2023-04-23T14:32:22;6.05;;;2.10;;
66607;SDS011;53462;39.616;8.824;2023-04-23T14:34:48;5.82;;;2.25;;
66607;SDS011;53462;39.616;8.824;2023-04-23T14:37:15;10.70;;;2.45;;
66607;SDS011;53462;39.616;8.824;2023-04-23T14:39:44;7.90;;;1.90;;
66607;SDS011;53462;39.616;8.824;2023-04-23T14:42:11;8.00;;;2.22;;
66607;SDS011;53462;39.616;8.824;2023-04-23T14:44:36;6.72;;;2.10;;
66607;SDS011;53462;39.616;8.824;2023-04-23T14:47:02;8.88;;;2.30;;
66607;SDS011;53462;39.616;8.824;2023-04-23T14:49:31;6.85;;;2.22;;
66607;SDS011;53462;39.616;8.824;2023-04-23T14:51:57;11.38;;;2.85;;
66607;SDS011;53462;39.616;8.824;2023-04-23T14:54:23;7.90;;;2.25;;
66607;SDS011;53462;39.616;8.824;2023-04-23T14:56:49;5.63;;;2.30;;
66607;SDS011;53462;39.616;8.824;2023-04-23T14:59:15;6.95;;;2.10;;
66607;SDS011;53462;39.616;8.824;2023-04-23T15:01:41;7.43;;;2.40;;
66607;SDS011;53462;39.616;8.824;2023-04-23T15:04:11;10.50;;;3.55;;
66607;SDS011;53462;39.616;8.824;2023-04-23T15:06:37;9.02;;;2.38;;